createdAt,value
2019-05-18T00:00:16.477Z,90.2
2019-05-18T00:01:16.556Z,90.4
2019-05-18T00:02:16.812Z,90.7
2019-05-18T00:03:17.071Z,90.9
2019-05-18T00:04:16.342Z,91.0
2019-05-18T00:05:16.607Z,91.2
2019-05-18T00:06:16.876Z,91.2
2019-05-18T00:07:17.199Z,91.5
2019-05-18T00:08:16.463Z,91.5
2019-05-18T00:09:16.720Z,91.5
2019-05-18T00:10:16.999Z,91.6
2019-05-18T00:11:17.047Z,91.7
2019-05-18T00:12:16.325Z,91.4
2019-05-18T00:13:16.623Z,91.5
2019-05-18T00:14:16.890Z,91.7
2019-05-18T00:15:17.173Z,91.5
2019-05-18T00:16:16.440Z,91.8
2019-05-18T00:17:25.639Z,91.9
2019-05-18T00:18:17.007Z,92.0
2019-05-18T00:19:16.278Z,92.0
2019-05-18T00:20:16.566Z,92.2
2019-05-18T00:21:16.613Z,92.3
2019-05-18T00:22:16.879Z,92.3
2019-05-18T00:23:17.145Z,92.3
2019-05-18T00:24:16.420Z,92.4
2019-05-18T00:25:16.697Z,92.4
2019-05-18T00:26:16.956Z,92.4
2019-05-18T00:27:17.217Z,92.4
2019-05-18T00:28:16.488Z,92.4
2019-05-18T00:29:16.758Z,92.8
2019-05-18T00:30:17.044Z,92.7
2019-05-18T00:31:17.117Z,92.6
2019-05-18T00:32:16.379Z,92.7
2019-05-18T00:33:16.655Z,92.7
2019-05-18T00:34:16.927Z,92.7
2019-05-18T00:35:17.197Z,92.9
2019-05-18T00:36:16.472Z,92.8
2019-05-18T00:37:16.742Z,92.8
2019-05-18T00:38:17.005Z,92.8
2019-05-18T00:39:16.260Z,92.8
2019-05-18T00:40:16.534Z,92.9
2019-05-18T00:41:16.580Z,92.9
2019-05-18T00:42:16.846Z,93.1
2019-05-18T00:43:17.135Z,93.3
2019-05-18T00:44:16.403Z,93.3
2019-05-18T00:45:16.673Z,93.2
2019-05-18T00:46:16.944Z,93.3
2019-05-18T00:47:17.210Z,93.3
2019-05-18T00:48:16.474Z,93.3
2019-05-18T00:49:16.755Z,93.5
2019-05-18T00:50:17.034Z,93.5
2019-05-18T00:51:17.091Z,93.5
2019-05-18T00:52:16.356Z,93.7
2019-05-18T00:53:16.624Z,93.8
2019-05-18T00:54:16.893Z,94.0
2019-05-18T00:55:17.164Z,94.0
2019-05-18T00:56:16.430Z,94.1
2019-05-18T00:57:16.697Z,94.0
2019-05-18T00:58:17.062Z,94.2
2019-05-18T00:59:16.497Z,94.3
2019-05-18T01:00:16.830Z,94.4
2019-05-18T01:01:16.984Z,94.4
2019-05-18T01:02:17.255Z,94.4
2019-05-18T01:03:16.521Z,94.5
2019-05-18T01:04:16.800Z,94.6
2019-05-18T01:05:17.061Z,94.7
2019-05-18T01:06:16.326Z,94.7
2019-05-18T01:07:16.602Z,94.7
2019-05-18T01:08:16.877Z,94.7
2019-05-18T01:09:17.179Z,94.8
2019-05-18T01:10:16.486Z,94.8
2019-05-18T01:11:16.542Z,94.9
2019-05-18T01:12:16.806Z,95.0
2019-05-18T01:13:17.066Z,95.1
2019-05-18T01:14:16.349Z,95.2
2019-05-18T01:15:16.659Z,95.3
2019-05-18T01:16:16.931Z,95.3
2019-05-18T01:17:17.193Z,95.3
2019-05-18T01:18:16.460Z,95.4
2019-05-18T01:19:16.732Z,95.4
2019-05-18T01:20:17.008Z,95.4
2019-05-18T01:21:17.057Z,95.4
2019-05-18T01:22:16.318Z,95.5
2019-05-18T01:23:16.589Z,95.5
2019-05-18T01:24:16.868Z,95.6
2019-05-18T01:25:17.135Z,95.6
2019-05-18T01:26:16.402Z,95.7
2019-05-18T01:27:16.673Z,95.6
2019-05-18T01:28:16.930Z,95.5
2019-05-18T01:29:17.195Z,95.5
2019-05-18T01:30:16.473Z,95.6
2019-05-18T01:31:16.499Z,95.6
2019-05-18T01:32:16.793Z,95.7
2019-05-18T01:33:17.065Z,95.7
2019-05-18T01:34:16.356Z,95.7
2019-05-18T01:35:16.625Z,95.7
2019-05-18T01:36:16.902Z,95.7
2019-05-18T01:37:17.178Z,95.8
2019-05-18T01:38:16.449Z,96.0
2019-05-18T01:39:16.725Z,96.0
2019-05-18T01:40:16.993Z,96.0
2019-05-18T01:41:17.064Z,95.8
2019-05-18T01:42:16.336Z,95.8
2019-05-18T01:43:16.599Z,95.8
2019-05-18T01:44:16.862Z,95.8
2019-05-18T01:45:17.825Z,95.8
2019-05-18T01:46:17.095Z,95.8
2019-05-18T01:47:16.361Z,95.8
2019-05-18T01:48:16.617Z,95.8
2019-05-18T01:49:16.883Z,95.8
2019-05-18T01:50:17.155Z,95.9
2019-05-18T01:51:17.232Z,95.8
2019-05-18T01:52:16.505Z,95.9
2019-05-18T01:53:16.780Z,95.9
2019-05-18T01:54:17.054Z,96.0
2019-05-18T01:55:16.323Z,96.0
2019-05-18T01:56:16.586Z,96.0
2019-05-18T01:57:16.864Z,96.0
2019-05-18T01:58:17.168Z,96.0
2019-05-18T01:59:16.442Z,95.9
2019-05-18T02:00:16.726Z,95.9
2019-05-18T02:01:17.208Z,95.8
2019-05-18T02:02:16.485Z,96.0
2019-05-18T02:03:16.746Z,96.0
2019-05-18T02:04:17.013Z,96.0
2019-05-18T02:05:16.288Z,96.0
2019-05-18T02:06:16.555Z,96.0
2019-05-18T02:07:16.831Z,96.2
2019-05-18T02:08:17.110Z,96.2
2019-05-18T02:09:16.384Z,96.1
2019-05-18T02:10:16.675Z,96.0
2019-05-18T02:11:16.700Z,96.0
2019-05-18T02:12:16.962Z,96.2
2019-05-18T02:13:17.229Z,96.2
2019-05-18T02:14:16.492Z,96.2
2019-05-18T02:15:16.819Z,96.2
2019-05-18T02:16:17.121Z,96.2
2019-05-18T02:17:16.389Z,96.2
2019-05-18T02:18:29.380Z,96.1
2019-05-18T02:19:16.733Z,96.2
2019-05-18T02:20:17.014Z,96.2
2019-05-18T02:21:17.077Z,96.3
2019-05-18T02:22:16.353Z,96.5
2019-05-18T02:23:16.617Z,96.5
2019-05-18T02:24:16.886Z,96.2
2019-05-18T02:25:17.174Z,96.0
2019-05-18T02:26:16.452Z,96.0
2019-05-18T02:27:16.730Z,96.0
2019-05-18T02:28:16.996Z,96.0
2019-05-18T02:29:16.264Z,96.0
2019-05-18T02:30:18.030Z,96.0
2019-05-18T02:31:16.604Z,96.1
2019-05-18T02:32:16.879Z,96.2
2019-05-18T02:33:17.169Z,96.2
2019-05-18T02:34:16.460Z,96.2
2019-05-18T02:35:16.737Z,96.0
2019-05-18T02:36:17.019Z,96.0
2019-05-18T02:37:16.296Z,96.0
2019-05-18T02:38:16.695Z,96.0
2019-05-18T02:39:16.965Z,96.0
2019-05-18T02:40:17.257Z,96.0
2019-05-18T02:41:16.295Z,96.0
2019-05-18T02:42:16.583Z,96.2
2019-05-18T02:43:16.880Z,96.2
2019-05-18T02:44:17.140Z,96.2
2019-05-18T02:45:16.425Z,96.0
2019-05-18T02:46:16.697Z,96.0
2019-05-18T02:47:16.973Z,96.0
2019-05-18T02:48:17.312Z,96.2
2019-05-18T02:49:16.595Z,96.1
2019-05-18T02:50:16.912Z,96.1
2019-05-18T02:51:16.944Z,96.2
2019-05-18T02:52:16.637Z,96.2
2019-05-18T02:53:16.915Z,96.0
2019-05-18T02:54:17.192Z,96.0
2019-05-18T02:55:16.485Z,96.0
2019-05-18T02:56:16.754Z,96.0
2019-05-18T02:57:17.025Z,96.1
2019-05-18T02:58:16.304Z,96.1
2019-05-18T02:59:16.603Z,96.2
2019-05-18T03:00:16.896Z,96.1
2019-05-18T03:01:16.938Z,96.0
2019-05-18T03:02:17.226Z,96.0
2019-05-18T03:03:16.499Z,96.0
2019-05-18T03:04:16.772Z,96.0
2019-05-18T03:05:17.053Z,96.0
2019-05-18T03:06:16.324Z,96.0
2019-05-18T03:07:16.608Z,96.0
2019-05-18T03:08:16.873Z,96.1
2019-05-18T03:09:17.135Z,96.1
2019-05-18T03:10:16.427Z,96.2
2019-05-18T03:11:16.487Z,96.2
2019-05-18T03:12:16.758Z,96.2
2019-05-18T03:13:17.043Z,96.3
2019-05-18T03:14:16.329Z,96.5
2019-05-18T03:15:16.633Z,96.5
2019-05-18T03:16:16.905Z,96.5
2019-05-18T03:17:17.167Z,96.5
2019-05-18T03:18:16.445Z,96.3
2019-05-18T03:19:16.751Z,96.4
2019-05-18T03:20:17.044Z,96.2
2019-05-18T03:21:17.104Z,96.2
2019-05-18T03:22:16.376Z,96.2
2019-05-18T03:23:16.630Z,96.4
2019-05-18T03:24:16.906Z,96.4
2019-05-18T03:25:17.196Z,96.5
2019-05-18T03:26:16.465Z,96.6
2019-05-18T03:27:16.749Z,96.7
2019-05-18T03:28:17.008Z,96.8
2019-05-18T03:29:16.270Z,97.0
2019-05-18T03:30:16.563Z,97.0
2019-05-18T03:31:16.617Z,97.0
2019-05-18T03:32:16.904Z,96.9
2019-05-18T03:33:17.180Z,96.8
2019-05-18T03:34:16.459Z,96.8
2019-05-18T03:35:16.754Z,96.7
2019-05-18T03:36:17.027Z,96.6
2019-05-18T03:37:16.308Z,96.6
2019-05-18T03:38:16.588Z,96.6
2019-05-18T03:39:16.850Z,96.6
2019-05-18T03:40:17.140Z,96.5
2019-05-18T03:41:17.194Z,96.5
2019-05-18T03:42:16.461Z,96.5
2019-05-18T03:43:16.737Z,96.3
2019-05-18T03:44:17.025Z,96.2
2019-05-18T03:45:16.294Z,96.2
2019-05-18T03:46:16.567Z,96.2
2019-05-18T03:47:16.834Z,96.2
2019-05-18T03:48:17.097Z,96.3
2019-05-18T03:49:27.666Z,96.3
2019-05-18T03:50:17.113Z,96.5
2019-05-18T03:51:17.158Z,96.5
2019-05-18T03:52:16.437Z,96.6
2019-05-18T03:53:18.589Z,96.5
2019-05-18T03:54:16.910Z,96.5
2019-05-18T03:55:17.224Z,96.3
2019-05-18T03:56:16.496Z,96.4
2019-05-18T03:57:16.773Z,96.3
2019-05-18T03:58:17.085Z,96.2
2019-05-18T03:59:16.357Z,96.3
2019-05-18T04:00:16.647Z,96.3
2019-05-18T04:01:16.722Z,96.4
2019-05-18T04:02:16.978Z,96.4
2019-05-18T04:03:17.262Z,96.4
2019-05-18T04:04:18.784Z,96.3
2019-05-18T04:05:17.084Z,96.4
2019-05-18T04:06:16.363Z,96.3
2019-05-18T04:07:16.644Z,96.3
2019-05-18T04:08:16.967Z,96.3
2019-05-18T04:09:17.255Z,96.3
2019-05-18T04:10:16.536Z,96.2
2019-05-18T04:11:16.607Z,96.2
2019-05-18T04:12:16.866Z,96.2
2019-05-18T04:13:17.142Z,96.1
2019-05-18T04:14:16.437Z,96.0
2019-05-18T04:15:16.719Z,96.0
2019-05-18T04:16:16.986Z,95.8
2019-05-18T04:17:17.268Z,95.8
2019-05-18T04:18:16.551Z,95.9
2019-05-18T04:19:16.838Z,96.0
2019-05-18T04:20:17.121Z,96.0
2019-05-18T04:21:17.144Z,96.0
2019-05-18T04:22:16.407Z,95.9
2019-05-18T04:23:16.668Z,95.8
2019-05-18T04:24:16.969Z,95.7
2019-05-18T04:25:17.255Z,95.7
2019-05-18T04:26:16.548Z,95.6
2019-05-18T04:27:16.826Z,95.4
2019-05-18T04:28:17.106Z,95.3
2019-05-18T04:29:16.369Z,95.3
2019-05-18T04:30:16.642Z,95.0
2019-05-18T04:31:16.712Z,95.0
2019-05-18T04:32:16.987Z,94.9
2019-05-18T04:33:17.254Z,94.8
2019-05-18T04:34:16.554Z,94.7
2019-05-18T04:35:16.835Z,94.6
2019-05-18T04:36:17.105Z,94.3
2019-05-18T04:37:16.392Z,94.4
2019-05-18T04:38:16.666Z,94.3
2019-05-18T04:39:17.000Z,94.2
2019-05-18T04:40:16.282Z,94.1
2019-05-18T04:41:16.352Z,94.0
2019-05-18T04:42:16.625Z,93.9
2019-05-18T04:43:16.909Z,93.8
2019-05-18T04:44:17.207Z,93.8
2019-05-18T04:45:16.497Z,93.7
2019-05-18T04:46:16.770Z,93.6
2019-05-18T04:47:17.053Z,93.5
2019-05-18T04:48:16.356Z,93.5
2019-05-18T04:49:16.633Z,93.3
2019-05-18T04:50:16.907Z,93.0
2019-05-18T04:51:16.979Z,92.9
2019-05-18T04:52:17.265Z,93.0
2019-05-18T04:53:16.529Z,93.1
2019-05-18T04:54:16.813Z,93.0
2019-05-18T04:55:17.093Z,92.8
2019-05-18T04:56:16.362Z,92.8
2019-05-18T04:57:16.710Z,92.9
2019-05-18T04:58:16.991Z,92.8
2019-05-18T04:59:16.265Z,92.7
2019-05-18T05:00:16.546Z,92.7
2019-05-18T05:01:16.606Z,92.8
2019-05-18T05:02:16.875Z,92.5
2019-05-18T05:03:17.156Z,92.2
2019-05-18T05:04:16.440Z,92.0
2019-05-18T05:05:16.726Z,91.8
2019-05-18T05:06:17.001Z,91.5
2019-05-18T05:07:16.260Z,91.3
2019-05-18T05:08:16.549Z,91.1
2019-05-18T05:09:16.824Z,91.1
2019-05-18T05:10:17.098Z,90.8
2019-05-18T05:11:17.148Z,90.5
2019-05-18T05:12:16.415Z,90.6
2019-05-18T05:13:16.686Z,90.7
2019-05-18T05:14:16.952Z,90.5
2019-05-18T05:15:17.235Z,90.5
2019-05-18T05:16:16.501Z,90.7
2019-05-18T05:17:16.765Z,90.1
2019-05-18T05:18:17.039Z,89.3
2019-05-18T05:19:16.305Z,89.7
2019-05-18T05:20:20.256Z,89.7
2019-05-18T05:21:16.691Z,89.7
2019-05-18T05:22:16.944Z,89.1
2019-05-18T05:23:17.234Z,88.2
2019-05-18T05:24:16.497Z,88.3
2019-05-18T05:25:16.765Z,87.9
2019-05-18T05:26:17.026Z,88.2
2019-05-18T05:27:16.293Z,88.1
2019-05-18T05:28:16.559Z,87.6
2019-05-18T05:29:16.817Z,87.3
2019-05-18T05:30:17.118Z,87.7
2019-05-18T05:31:17.146Z,87.5
2019-05-18T05:32:16.423Z,86.8
2019-05-18T05:33:16.713Z,87.1
2019-05-18T05:34:17.028Z,86.8
2019-05-18T05:35:16.325Z,86.6
2019-05-18T05:36:16.620Z,86.5
2019-05-18T05:37:16.886Z,86.3
2019-05-18T05:38:17.161Z,86.4
2019-05-18T05:39:16.477Z,86.2
2019-05-18T05:40:16.767Z,86.0
2019-05-18T05:41:17.012Z,86.2
2019-05-18T05:42:16.289Z,85.5
2019-05-18T05:43:16.557Z,85.7
2019-05-18T05:44:16.848Z,85.7
2019-05-18T05:45:17.126Z,85.3
2019-05-18T05:46:16.368Z,85.3
2019-05-18T05:47:16.637Z,85.0
2019-05-18T05:48:16.895Z,84.5
2019-05-18T05:49:17.156Z,84.2
2019-05-18T05:50:16.451Z,84.1
2019-05-18T05:51:16.511Z,84.2
2019-05-18T05:52:16.776Z,84.2
2019-05-18T05:53:17.047Z,83.9
2019-05-18T05:54:16.322Z,83.8
2019-05-18T05:55:16.589Z,84.3
2019-05-18T05:56:16.865Z,83.6
2019-05-18T05:57:17.150Z,83.7
2019-05-18T05:58:16.420Z,83.8
2019-05-18T05:59:16.699Z,83.8
2019-05-18T06:00:16.980Z,83.2
2019-05-18T06:01:17.015Z,82.8
2019-05-18T06:02:16.297Z,82.7
2019-05-18T06:03:16.563Z,82.8
2019-05-18T06:04:16.835Z,82.7
2019-05-18T06:05:17.108Z,82.2
2019-05-18T06:06:16.393Z,81.4
2019-05-18T06:07:16.707Z,81.2
2019-05-18T06:08:16.987Z,80.8
2019-05-18T06:09:17.267Z,80.3
2019-05-18T06:10:16.541Z,80.4
2019-05-18T06:11:16.587Z,80.3
2019-05-18T06:12:16.895Z,79.5
2019-05-18T06:13:17.186Z,79.7
2019-05-18T06:14:16.452Z,79.3
2019-05-18T06:15:16.736Z,78.7
2019-05-18T06:16:17.017Z,78.2
2019-05-18T06:17:16.288Z,79.0
2019-05-18T06:18:16.647Z,78.2
2019-05-18T06:19:16.931Z,78.2
2019-05-18T06:20:17.223Z,77.3
2019-05-18T06:21:16.277Z,76.9
2019-05-18T06:22:16.565Z,76.8
2019-05-18T06:23:16.828Z,76.5
2019-05-18T06:24:17.103Z,76.0
2019-05-18T06:25:16.390Z,75.8
2019-05-18T06:26:16.650Z,76.1
2019-05-18T06:27:16.914Z,75.0
2019-05-18T06:28:17.198Z,75.0
2019-05-18T06:29:16.469Z,74.6
2019-05-18T06:30:16.774Z,73.8
2019-05-18T06:31:16.806Z,72.8
2019-05-18T06:32:17.078Z,72.8
2019-05-18T06:33:16.350Z,73.8
2019-05-18T06:34:16.615Z,73.7
2019-05-18T06:35:16.882Z,72.0
2019-05-18T06:36:17.157Z,71.4
2019-05-18T06:37:16.419Z,71.5
2019-05-18T06:38:16.684Z,70.7
2019-05-18T06:39:16.944Z,70.5
2019-05-18T06:40:17.262Z,71.3
2019-05-18T06:41:16.300Z,70.4
2019-05-18T06:42:16.560Z,70.0
2019-05-18T06:43:16.874Z,69.5
2019-05-18T06:44:17.143Z,68.9
2019-05-18T06:45:16.415Z,68.8
2019-05-18T06:46:16.685Z,69.0
2019-05-18T06:47:16.954Z,68.1
2019-05-18T06:48:17.219Z,69.1
2019-05-18T06:49:16.495Z,68.3
2019-05-18T06:50:16.811Z,66.2
2019-05-18T06:51:16.821Z,67.6
2019-05-18T06:52:17.099Z,68.8
2019-05-18T06:53:16.423Z,69.5
2019-05-18T06:54:16.769Z,69.5
2019-05-18T06:55:17.030Z,68.5
2019-05-18T06:56:16.294Z,68.1
2019-05-18T06:57:16.556Z,67.5
2019-05-18T06:58:16.829Z,66.3
2019-05-18T06:59:17.103Z,65.8
2019-05-18T07:00:16.404Z,66.2
2019-05-18T07:01:16.444Z,65.5
2019-05-18T07:02:16.727Z,66.5
2019-05-18T07:03:16.989Z,65.5
2019-05-18T07:04:16.268Z,64.1
2019-05-18T07:05:16.535Z,64.1
2019-05-18T07:06:16.809Z,64.6
2019-05-18T07:07:17.080Z,65.5
2019-05-18T07:08:16.339Z,65.5
2019-05-18T07:09:16.605Z,64.5
2019-05-18T07:10:16.879Z,65.0
2019-05-18T07:11:16.937Z,64.3
2019-05-18T07:12:17.220Z,63.9
2019-05-18T07:13:16.494Z,63.6
2019-05-18T07:14:26.181Z,63.2
2019-05-18T07:15:16.524Z,63.3
2019-05-18T07:16:16.790Z,64.5
2019-05-18T07:17:17.056Z,64.5
2019-05-18T07:18:16.321Z,63.6
2019-05-18T07:19:16.608Z,62.5
2019-05-18T07:20:16.965Z,63.5
2019-05-18T07:21:22.804Z,63.9
2019-05-18T07:22:17.115Z,62.6
2019-05-18T07:23:16.386Z,62.4
2019-05-18T07:24:16.653Z,62.8
2019-05-18T07:25:16.927Z,62.5
2019-05-18T07:26:17.204Z,61.5
2019-05-18T07:27:16.461Z,61.5
2019-05-18T07:28:16.736Z,63.5
2019-05-18T07:29:16.997Z,63.1
2019-05-18T07:30:16.264Z,61.3
2019-05-18T07:31:16.367Z,60.9
2019-05-18T07:32:16.645Z,61.1
2019-05-18T07:33:16.902Z,61.7
2019-05-18T07:34:17.184Z,61.1
2019-05-18T07:35:16.458Z,60.5
2019-05-18T07:36:16.735Z,61.2
2019-05-18T07:37:17.003Z,62.4
2019-05-18T07:38:16.275Z,63.2
2019-05-18T07:39:16.533Z,62.9
2019-05-18T07:40:16.820Z,61.5
2019-05-18T07:41:16.885Z,60.7
2019-05-18T07:42:17.144Z,60.9
2019-05-18T07:43:16.410Z,61.6
2019-05-18T07:44:16.683Z,60.9
2019-05-18T07:45:16.959Z,60.4
2019-05-18T07:46:17.225Z,60.4
2019-05-18T07:47:16.484Z,59.1
2019-05-18T07:48:16.980Z,60.2
2019-05-18T07:49:17.257Z,58.8
2019-05-18T07:50:16.523Z,59.1
2019-05-18T07:51:16.593Z,58.9
2019-05-18T07:52:17.516Z,58.2
2019-05-18T07:53:16.786Z,59.5
2019-05-18T07:54:17.039Z,59.1
2019-05-18T07:55:16.316Z,58.5
2019-05-18T07:56:16.585Z,59.4
2019-05-18T07:57:16.857Z,59.5
2019-05-18T07:58:17.144Z,59.1
2019-05-18T07:59:18.124Z,56.9
2019-05-18T08:00:17.039Z,57.8
2019-05-18T08:01:17.078Z,57.3
2019-05-18T08:02:16.335Z,58.3
2019-05-18T08:03:16.591Z,57.2
2019-05-18T08:04:16.870Z,57.5
2019-05-18T08:05:17.144Z,58.5
2019-05-18T08:06:16.422Z,57.1
2019-05-18T08:07:16.678Z,57.7
2019-05-18T08:08:16.955Z,57.5
2019-05-18T08:09:17.265Z,56.8
2019-05-18T08:10:16.554Z,58.7
2019-05-18T08:11:16.606Z,58.5
2019-05-18T08:12:16.881Z,58.5
2019-05-18T08:13:17.350Z,57.2
2019-05-18T08:14:16.615Z,57.4
2019-05-18T08:15:16.880Z,56.9
2019-05-18T08:16:17.148Z,57.7
2019-05-18T08:17:16.425Z,57.8
2019-05-18T08:18:16.727Z,58.1
2019-05-18T08:19:17.001Z,58.7
2019-05-18T08:20:16.249Z,58.1
2019-05-18T08:21:16.348Z,56.0
2019-05-18T08:22:16.610Z,56.4
2019-05-18T08:23:16.871Z,55.1
2019-05-18T08:24:17.149Z,55.8
2019-05-18T08:25:16.414Z,56.1
2019-05-18T08:26:16.671Z,55.6
2019-05-18T08:27:16.928Z,56.5
2019-05-18T08:28:17.197Z,55.9
2019-05-18T08:29:16.468Z,56.8
2019-05-18T08:30:16.742Z,58.5
2019-05-18T08:31:16.800Z,56.5
2019-05-18T08:32:17.093Z,56.2
2019-05-18T08:33:16.363Z,56.5
2019-05-18T08:34:16.637Z,57.1
2019-05-18T08:35:16.908Z,58.8
2019-05-18T08:36:17.169Z,59.0
2019-05-18T08:37:16.511Z,58.0
2019-05-18T08:38:16.809Z,56.9
2019-05-18T08:39:17.073Z,57.1
2019-05-18T08:40:16.348Z,57.7
2019-05-18T08:41:16.408Z,56.5
2019-05-18T08:42:16.664Z,56.5
2019-05-18T08:43:16.940Z,55.1
2019-05-18T08:44:17.212Z,55.8
2019-05-18T08:45:16.485Z,55.6
2019-05-18T08:46:16.759Z,56.6
2019-05-18T08:47:17.032Z,57.8
2019-05-18T08:48:16.303Z,55.8
2019-05-18T08:49:16.565Z,55.8
2019-05-18T08:50:16.872Z,55.5
2019-05-18T08:51:16.911Z,54.6
2019-05-18T08:52:17.171Z,55.5
2019-05-18T08:53:16.443Z,53.8
2019-05-18T08:54:16.714Z,54.4
2019-05-18T08:55:17.012Z,55.7
2019-05-18T08:56:16.285Z,54.1
2019-05-18T08:57:16.581Z,54.0
2019-05-18T08:58:16.851Z,53.1
2019-05-18T08:59:17.133Z,53.1
2019-05-18T09:00:16.434Z,52.6
2019-05-18T09:01:16.477Z,52.0
2019-05-18T09:02:16.740Z,53.4
2019-05-18T09:03:17.014Z,52.6
2019-05-18T09:04:16.291Z,53.0
2019-05-18T09:05:16.617Z,53.1
2019-05-18T09:06:16.885Z,52.6
2019-05-18T09:07:17.160Z,52.0
2019-05-18T09:08:16.464Z,53.9
2019-05-18T09:09:16.739Z,53.2
2019-05-18T09:10:17.005Z,53.0
2019-05-18T09:11:17.067Z,52.2
2019-05-18T09:12:16.339Z,53.0
2019-05-18T09:13:16.594Z,52.4
2019-05-18T09:14:16.857Z,52.3
2019-05-18T09:15:17.157Z,51.9
2019-05-18T09:16:16.425Z,51.6
2019-05-18T09:17:16.735Z,52.5
2019-05-18T09:18:16.997Z,51.1
2019-05-18T09:19:16.262Z,52.2
2019-05-18T09:20:16.539Z,52.1
2019-05-18T09:21:16.602Z,53.1
2019-05-18T09:22:23.570Z,52.3
2019-05-18T09:23:16.907Z,51.5
2019-05-18T09:24:17.177Z,53.3
2019-05-18T09:25:16.444Z,51.6
2019-05-18T09:26:16.708Z,51.2
2019-05-18T09:27:16.965Z,51.5
2019-05-18T09:28:17.235Z,52.5
2019-05-18T09:29:16.497Z,50.4
2019-05-18T09:30:16.762Z,49.6
2019-05-18T09:31:16.830Z,49.7
2019-05-18T09:32:17.109Z,52.0
2019-05-18T09:33:16.384Z,52.9
2019-05-18T09:34:16.645Z,51.8
2019-05-18T09:35:16.933Z,52.2
2019-05-18T09:36:17.236Z,53.0
2019-05-18T09:37:16.529Z,53.1
2019-05-18T09:38:16.794Z,54.1
2019-05-18T09:39:17.065Z,52.0
2019-05-18T09:40:16.350Z,52.4
2019-05-18T09:41:16.394Z,52.2
2019-05-18T09:42:16.661Z,51.9
2019-05-18T09:43:16.930Z,52.0
2019-05-18T09:44:17.204Z,52.9
2019-05-18T09:45:16.470Z,51.5
2019-05-18T09:46:16.749Z,52.2
2019-05-18T09:47:17.033Z,51.8
2019-05-18T09:48:16.408Z,52.2
2019-05-18T09:49:16.677Z,51.0
2019-05-18T09:50:16.951Z,51.5
2019-05-18T09:51:16.993Z,52.0
2019-05-18T09:52:16.260Z,51.6
2019-05-18T09:53:16.540Z,52.2
2019-05-18T09:54:16.811Z,52.8
2019-05-18T09:55:17.098Z,52.8
2019-05-18T09:56:16.364Z,51.4
2019-05-18T09:57:16.636Z,52.4
2019-05-18T09:58:17.061Z,53.9
2019-05-18T09:59:16.356Z,51.9
2019-05-18T10:00:16.658Z,52.5
2019-05-18T10:01:16.722Z,52.4
2019-05-18T10:02:17.080Z,51.8
2019-05-18T10:03:16.342Z,52.1
2019-05-18T10:04:16.618Z,51.6
2019-05-18T10:05:16.892Z,50.7
2019-05-18T10:06:17.164Z,51.0
2019-05-18T10:07:16.496Z,50.5
2019-05-18T10:08:16.762Z,49.8
2019-05-18T10:09:17.033Z,49.5
2019-05-18T10:10:16.320Z,50.5
2019-05-18T10:11:16.411Z,50.7
2019-05-18T10:12:16.674Z,51.9
2019-05-18T10:13:16.943Z,51.5
2019-05-18T10:14:17.220Z,50.6
2019-05-18T10:15:16.498Z,51.3
2019-05-18T10:16:16.793Z,50.1
2019-05-18T10:17:17.064Z,50.9
2019-05-18T10:18:16.338Z,50.6
2019-05-18T10:19:16.643Z,49.4
2019-05-18T10:20:16.929Z,49.3
2019-05-18T10:21:16.983Z,51.4
2019-05-18T10:22:17.242Z,50.2
2019-05-18T10:23:16.569Z,51.5
2019-05-18T10:24:16.834Z,51.0
2019-05-18T10:25:17.131Z,49.1
2019-05-18T10:26:16.399Z,48.9
2019-05-18T10:27:16.677Z,50.6
2019-05-18T10:28:16.952Z,49.6
2019-05-18T10:29:17.223Z,49.5
2019-05-18T10:30:16.511Z,48.5
2019-05-18T10:31:16.595Z,49.0
2019-05-18T10:32:16.850Z,49.0
2019-05-18T10:33:17.128Z,48.7
2019-05-18T10:34:16.396Z,49.0
2019-05-18T10:35:16.662Z,50.1
2019-05-18T10:36:16.927Z,50.1
2019-05-18T10:37:17.195Z,49.1
2019-05-18T10:38:16.481Z,48.2
2019-05-18T10:39:16.756Z,50.4
2019-05-18T10:40:17.035Z,49.0
2019-05-18T10:41:17.099Z,50.2
2019-05-18T10:42:16.363Z,50.2
2019-05-18T10:43:16.638Z,50.2
2019-05-18T10:44:16.909Z,50.5
2019-05-18T10:45:17.184Z,48.9
2019-05-18T10:46:16.452Z,49.7
2019-05-18T10:47:16.790Z,49.5
2019-05-18T10:48:17.058Z,48.5
2019-05-18T10:49:16.330Z,48.8
2019-05-18T10:50:16.615Z,49.0
2019-05-18T10:51:16.662Z,48.9
2019-05-18T10:52:16.940Z,48.4
2019-05-18T10:53:29.132Z,49.0
2019-05-18T10:54:16.482Z,48.1
2019-05-18T10:55:16.747Z,47.6
2019-05-18T10:56:17.012Z,49.0
2019-05-18T10:57:16.267Z,48.2
2019-05-18T10:58:16.543Z,48.8
2019-05-18T10:59:16.811Z,47.6
2019-05-18T11:00:17.102Z,48.6
2019-05-18T11:01:17.146Z,48.0
2019-05-18T11:02:16.434Z,48.6
2019-05-18T11:03:16.706Z,48.4
2019-05-18T11:04:17.013Z,47.8
2019-05-18T11:05:16.294Z,48.4
2019-05-18T11:06:16.566Z,48.4
2019-05-18T11:07:16.835Z,47.5
2019-05-18T11:08:17.120Z,46.6
2019-05-18T11:09:16.380Z,46.9
2019-05-18T11:10:16.653Z,47.2
2019-05-18T11:11:16.700Z,48.0
2019-05-18T11:12:16.977Z,49.0
2019-05-18T11:13:17.565Z,48.9
2019-05-18T11:14:19.109Z,49.0
2019-05-18T11:15:16.426Z,49.2
2019-05-18T11:16:16.689Z,50.1
2019-05-18T11:17:16.953Z,49.8
2019-05-18T11:18:17.221Z,50.6
2019-05-18T11:19:16.509Z,49.3
2019-05-18T11:20:16.786Z,48.6
2019-05-18T11:21:16.847Z,48.5
2019-05-18T11:22:17.123Z,48.9
2019-05-18T11:23:16.396Z,47.2
2019-05-18T11:24:16.656Z,47.5
2019-05-18T11:25:16.944Z,46.1
2019-05-18T11:26:17.207Z,47.9
2019-05-18T11:27:16.481Z,48.0
2019-05-18T11:28:16.752Z,47.0
2019-05-18T11:29:17.033Z,47.6
2019-05-18T11:30:16.322Z,47.5
2019-05-18T11:31:16.389Z,46.4
2019-05-18T11:32:16.660Z,47.1
2019-05-18T11:33:16.925Z,47.2
2019-05-18T11:34:17.194Z,46.8
2019-05-18T11:35:16.464Z,46.5
2019-05-18T11:36:16.732Z,48.0
2019-05-18T11:37:16.976Z,47.0
2019-05-18T11:38:17.233Z,46.9
2019-05-18T11:39:16.516Z,46.5
2019-05-18T11:40:16.796Z,48.1
2019-05-18T11:41:16.889Z,46.4
2019-05-18T11:42:17.159Z,46.7
2019-05-18T11:43:16.426Z,48.0
2019-05-18T11:44:16.725Z,48.2
2019-05-18T11:45:17.045Z,47.9
2019-05-18T11:46:16.316Z,48.2
2019-05-18T11:47:16.594Z,48.9
2019-05-18T11:48:16.882Z,48.8
2019-05-18T11:49:17.150Z,49.2
2019-05-18T11:50:16.434Z,48.0
2019-05-18T11:51:16.487Z,49.1
2019-05-18T11:52:16.759Z,49.5
2019-05-18T11:53:17.010Z,49.2
2019-05-18T11:54:16.275Z,49.2
2019-05-18T11:55:16.561Z,49.3
2019-05-18T11:56:16.823Z,47.3
2019-05-18T11:57:17.085Z,48.0
2019-05-18T11:58:16.359Z,48.1
2019-05-18T11:59:16.620Z,49.6
2019-05-18T12:00:16.895Z,48.8
2019-05-18T12:01:16.951Z,49.8
2019-05-18T12:02:17.241Z,49.5
2019-05-18T12:03:16.532Z,49.8
2019-05-18T12:04:16.814Z,50.7
2019-05-18T12:05:17.158Z,50.3
2019-05-18T12:06:16.448Z,50.5
2019-05-18T12:07:16.725Z,49.8
2019-05-18T12:08:16.984Z,49.5
2019-05-18T12:09:17.273Z,49.1
2019-05-18T12:10:18.855Z,49.8
2019-05-18T12:11:16.617Z,51.0
2019-05-18T12:12:16.910Z,49.3
2019-05-18T12:13:17.191Z,49.6
2019-05-18T12:14:16.509Z,50.5
2019-05-18T12:15:16.798Z,49.3
2019-05-18T12:16:17.675Z,49.3
2019-05-18T12:17:16.941Z,49.2
2019-05-18T12:18:17.214Z,49.3
2019-05-18T12:19:16.487Z,51.7
2019-05-18T12:20:16.774Z,50.3
2019-05-18T12:21:16.809Z,50.3
2019-05-18T12:22:17.078Z,49.5
2019-05-18T12:23:16.341Z,49.9
2019-05-18T12:24:16.615Z,50.3
2019-05-18T12:25:16.920Z,49.8
2019-05-18T12:26:17.197Z,49.5
2019-05-18T12:27:16.457Z,50.9
2019-05-18T12:28:16.726Z,50.2
2019-05-18T12:29:16.977Z,49.9
2019-05-18T12:30:17.277Z,48.6
2019-05-18T12:31:16.385Z,49.4
2019-05-18T12:32:16.649Z,49.1
2019-05-18T12:33:16.940Z,49.1
2019-05-18T12:34:17.207Z,49.9
2019-05-18T12:35:16.487Z,50.2
2019-05-18T12:36:16.770Z,50.4
2019-05-18T12:37:17.030Z,49.2
2019-05-18T12:38:16.295Z,49.0
2019-05-18T12:39:16.560Z,49.0
2019-05-18T12:40:16.833Z,49.8
2019-05-18T12:41:16.886Z,48.6
2019-05-18T12:42:17.149Z,49.0
2019-05-18T12:43:16.429Z,49.9
2019-05-18T12:44:16.696Z,49.9
2019-05-18T12:45:16.974Z,48.3
2019-05-18T12:46:17.255Z,48.8
2019-05-18T12:47:16.531Z,49.8
2019-05-18T12:48:16.795Z,49.4
2019-05-18T12:49:17.077Z,49.0
2019-05-18T12:50:16.351Z,49.4
2019-05-18T12:51:16.460Z,48.6
2019-05-18T12:52:16.740Z,48.5
2019-05-18T12:53:17.927Z,48.2
2019-05-18T12:54:34.042Z,48.8
2019-05-18T12:55:16.583Z,48.8
2019-05-18T12:56:16.847Z,48.5
2019-05-18T12:57:17.112Z,48.3
2019-05-18T12:58:16.382Z,48.4
2019-05-18T12:59:16.636Z,49.2
2019-05-18T13:00:16.922Z,49.1
2019-05-18T13:01:16.973Z,49.0
2019-05-18T13:02:17.237Z,49.3
2019-05-18T13:03:16.510Z,49.5
2019-05-18T13:04:16.785Z,49.0
2019-05-18T13:05:17.064Z,49.7
2019-05-18T13:06:16.330Z,48.4
2019-05-18T13:07:16.591Z,48.6
2019-05-18T13:08:16.867Z,49.1
2019-05-18T13:09:17.141Z,48.8
2019-05-18T13:10:16.420Z,48.0
2019-05-18T13:11:16.480Z,48.5
2019-05-18T13:12:16.751Z,49.2
2019-05-18T13:13:17.016Z,48.5
2019-05-18T13:14:16.281Z,49.1
2019-05-18T13:15:16.562Z,48.7
2019-05-18T13:16:16.834Z,48.5
2019-05-18T13:17:17.117Z,48.4
2019-05-18T13:18:16.385Z,48.8